Raven — WDG3535 — position and weather

sailwx.info

Track history (hours):
 
Tides and Currents Weather Stations Pressure Air Temp Water Temp Dewpoint Dewpoint Depression Visibility Wind Speed Wind Dir Waves Ship Positions

Raven

Owner: Chesapeake Marine Tours Inc, Annapolis, MD. More information available from US FCC via Universal Licensing System.

Last reported at 2018-Jan-02 19:30 UTC. Time now 2018-Jan-18 20:09 UTC.
Position N 38°58' W 076°29'.
Warning: this ship's position is 16 days out of date.

Type: Passenger vessel. MMSI: 367527050.

Date/timePositionNaut miles runAvg speedWind from/ knotsBaromVisibWave heightAir tempDewpointWater temp
2018-Jan-02 19:30N 38°58' W 076°29'0 0.0
2018-Jan-02 19:00N 38°58' W 076°29'0 0.0
2018-Jan-02 18:30N 38°58' W 076°29'0 0.0
2018-Jan-02 18:00N 38°58' W 076°29'1 2.2
2018-Jan-02 17:30N 38°58' W 076°27'4 8.9
2018-Jan-02 17:00N 39°01' W 076°23'510.4
2018-Jan-02 16:29N 39°06' W 076°24'510.1
2018-Jan-02 16:00N 39°10' W 076°26'510.4
2018-Jan-02 15:30N 39°13' W 076°32'4 8.8
2018-Jan-02 15:00N 39°17' W 076°35'1 2.2
2018-Jan-02 14:30N 39°17' W 076°37'0 0.0
2018-Jan-01 06:00N 39°17' W 076°37'1 2.6
2018-Jan-01 05:30N 39°17' W 076°35'0 0.5
2018-Jan-01 05:00N 39°17' W 076°35'1 1.3
2018-Jan-01 04:00N 39°16' W 076°34'1 2.6
2018-Jan-01 03:30N 39°17' W 076°35'1 2.2
2018-Jan-01 03:00N 39°17' W 076°37'0 0.0
2018-Jan-01 02:30N 39°17' W 076°37'0 0.0
2018-Jan-01 02:00N 39°17' W 076°37'0 0.0
2018-Jan-01 01:30N 39°17' W 076°37'0 0.0
2018-Jan-01 00:30N 39°17' W 076°37'  
2017-Dec-28 16:58N 39°17' W 076°37'1 2.3
2017-Dec-28 16:30N 39°17' W 076°35'4 8.2
2017-Dec-28 16:00N 39°13' W 076°32'510.2
2017-Dec-28 15:30N 39°11' W 076°27'7 9.7
2017-Dec-28 14:48N 39°04' W 076°24'410.0
2017-Dec-28 14:23N 39°00' W 076°23'3 9.3
2017-Dec-28 14:00N 38°58' W 076°26'  
Track history (hours):
 
Tides and Currents Weather Stations Pressure Air Temp Water Temp Dewpoint Dewpoint Depression Visibility Wind Speed Wind Dir Waves Ship Positions

Raven

Owner: Chesapeake Marine Tours Inc, Annapolis, MD. More information available from US FCC via Universal Licensing System.

Last reported at 2018-Jan-02 19:30 UTC. Time now 2018-Jan-18 20:09 UTC.
Position N 38°58' W 076°29'.
Warning: this ship's position is 16 days out of date.

Type: Passenger vessel. MMSI: 367527050.

Date/timePositionNaut miles runAvg speedWind from/ knotsBaromVisibWave heightAir tempDewpointWater temp
2018-Jan-02 19:30N 38°58' W 076°29'0 0.0
2018-Jan-02 19:00N 38°58' W 076°29'0 0.0
2018-Jan-02 18:30N 38°58' W 076°29'0 0.0
2018-Jan-02 18:00N 38°58' W 076°29'1 2.2
2018-Jan-02 17:30N 38°58' W 076°27'4 8.9
2018-Jan-02 17:00N 39°01' W 076°23'510.4
2018-Jan-02 16:29N 39°06' W 076°24'510.1
2018-Jan-02 16:00N 39°10' W 076°26'510.4
2018-Jan-02 15:30N 39°13' W 076°32'4 8.8
2018-Jan-02 15:00N 39°17' W 076°35'1 2.2
2018-Jan-02 14:30N 39°17' W 076°37'0 0.0
2018-Jan-01 06:00N 39°17' W 076°37'1 2.6
2018-Jan-01 05:30N 39°17' W 076°35'0 0.5
2018-Jan-01 05:00N 39°17' W 076°35'1 1.3
2018-Jan-01 04:00N 39°16' W 076°34'1 2.6
2018-Jan-01 03:30N 39°17' W 076°35'1 2.2
2018-Jan-01 03:00N 39°17' W 076°37'0 0.0
2018-Jan-01 02:30N 39°17' W 076°37'0 0.0
2018-Jan-01 02:00N 39°17' W 076°37'0 0.0
2018-Jan-01 01:30N 39°17' W 076°37'0 0.0
2018-Jan-01 00:30N 39°17' W 076°37'  
2017-Dec-28 16:58N 39°17' W 076°37'1 2.3
2017-Dec-28 16:30N 39°17' W 076°35'4 8.2
2017-Dec-28 16:00N 39°13' W 076°32'510.2
2017-Dec-28 15:30N 39°11' W 076°27'7 9.7
2017-Dec-28 14:48N 39°04' W 076°24'410.0
2017-Dec-28 14:23N 39°00' W 076°23'3 9.3
2017-Dec-28 14:00N 38°58' W 076°26'  

Dump ship's entire track history